createdAt,value
2019-05-20T00:00:34.503Z,0.00
2019-05-20T00:01:34.500Z,0.00
2019-05-20T00:02:34.496Z,0.00
2019-05-20T00:03:34.480Z,0.00
2019-05-20T00:04:34.505Z,0.00
2019-05-20T00:05:34.478Z,0.00
2019-05-20T00:06:34.484Z,0.00
2019-05-20T00:07:34.450Z,0.00
2019-05-20T00:08:34.443Z,0.00
2019-05-20T00:09:34.434Z,0.00
2019-05-20T00:10:34.510Z,0.00
2019-05-20T00:11:34.421Z,0.00
2019-05-20T00:12:34.418Z,0.00
2019-05-20T00:13:34.407Z,0.00
2019-05-20T00:14:34.417Z,0.00
2019-05-20T00:15:34.393Z,0.00
2019-05-20T00:16:34.391Z,0.00
2019-05-20T00:17:34.398Z,0.00
2019-05-20T00:18:34.366Z,0.00
2019-05-20T00:19:34.356Z,0.00
2019-05-20T00:20:34.352Z,0.00
2019-05-20T00:21:34.362Z,0.00
2019-05-20T00:22:34.344Z,0.00
2019-05-20T00:23:34.326Z,0.00
2019-05-20T00:24:34.320Z,0.00
2019-05-20T00:25:34.312Z,0.00
2019-05-20T00:26:34.302Z,0.00
2019-05-20T00:27:34.304Z,0.00
2019-05-20T00:28:34.292Z,0.00
2019-05-20T00:29:34.297Z,0.00
2019-05-20T00:30:34.276Z,0.00
2019-05-20T00:31:34.261Z,0.00
2019-05-20T00:32:41.375Z,0.00
2019-05-20T00:33:35.244Z,0.00
2019-05-20T00:34:35.682Z,0.00
2019-05-20T00:35:34.242Z,0.00
2019-05-20T00:36:34.238Z,0.00
2019-05-20T00:37:34.220Z,0.00
2019-05-20T00:38:34.220Z,0.00
2019-05-20T00:39:34.210Z,0.00
2019-05-20T00:40:34.216Z,0.00
2019-05-20T00:41:34.215Z,0.00
2019-05-20T00:42:34.206Z,0.00
2019-05-20T00:43:34.222Z,0.00
2019-05-20T00:44:34.190Z,0.00
2019-05-20T00:45:34.187Z,0.00
2019-05-20T00:46:34.178Z,0.00
2019-05-20T00:47:34.168Z,0.00
2019-05-20T00:48:34.214Z,0.00
2019-05-20T00:49:34.225Z,0.00
2019-05-20T00:50:34.174Z,0.00
2019-05-20T00:51:34.155Z,0.00
2019-05-20T00:52:34.152Z,0.00
2019-05-20T00:53:34.140Z,0.00
2019-05-20T00:54:34.233Z,0.00
2019-05-20T00:55:34.139Z,0.00
2019-05-20T00:56:34.139Z,0.00
2019-05-20T00:57:34.123Z,0.00
2019-05-20T00:58:34.120Z,0.00
2019-05-20T00:59:34.131Z,0.00
2019-05-20T01:00:34.156Z,0.00
2019-05-20T01:01:34.114Z,0.00
2019-05-20T01:02:34.126Z,0.00
2019-05-20T01:03:34.137Z,0.00
2019-05-20T01:04:34.115Z,0.00
2019-05-20T01:05:34.110Z,0.00
2019-05-20T01:06:34.094Z,0.00
2019-05-20T01:07:34.106Z,0.00
2019-05-20T01:08:34.082Z,0.00
2019-05-20T01:09:34.077Z,0.00
2019-05-20T01:10:34.111Z,0.00
2019-05-20T01:11:34.144Z,0.00
2019-05-20T01:12:34.084Z,0.00
2019-05-20T01:13:34.065Z,0.00
2019-05-20T01:14:34.080Z,0.00
2019-05-20T01:15:34.051Z,0.00
2019-05-20T01:16:34.049Z,0.00
2019-05-20T01:17:34.035Z,0.00
2019-05-20T01:18:34.048Z,0.00
2019-05-20T01:19:34.017Z,0.00
2019-05-20T01:20:34.007Z,0.00
2019-05-20T01:21:34.089Z,0.00
2019-05-20T01:22:33.997Z,0.00
2019-05-20T01:23:33.984Z,0.00
2019-05-20T01:24:33.979Z,0.00
2019-05-20T01:25:33.983Z,0.00
2019-05-20T01:26:33.968Z,0.00
2019-05-20T01:27:33.982Z,0.00
2019-05-20T01:28:33.962Z,0.00
2019-05-20T01:29:33.951Z,0.00
2019-05-20T01:30:33.944Z,0.00
2019-05-20T01:31:33.951Z,0.00
2019-05-20T01:32:34.025Z,0.00
2019-05-20T01:33:33.921Z,0.00
2019-05-20T01:34:33.911Z,0.00
2019-05-20T01:35:33.910Z,0.00
2019-05-20T01:36:33.914Z,0.00
2019-05-20T01:37:33.890Z,0.00
2019-05-20T01:38:33.884Z,0.00
2019-05-20T01:39:33.907Z,0.00
2019-05-20T01:40:33.884Z,0.00
2019-05-20T01:41:33.882Z,0.00
2019-05-20T01:42:33.892Z,0.00
2019-05-20T01:43:34.006Z,0.00
2019-05-20T01:44:33.855Z,0.00
2019-05-20T01:45:33.923Z,0.00
2019-05-20T01:46:33.848Z,0.00
2019-05-20T01:47:33.842Z,0.00
2019-05-20T01:48:33.853Z,0.00
2019-05-20T01:49:33.860Z,0.00
2019-05-20T01:50:33.851Z,0.00
2019-05-20T01:51:33.829Z,0.00
2019-05-20T01:52:33.822Z,0.00
2019-05-20T01:53:33.817Z,0.00
2019-05-20T01:54:33.815Z,0.00
2019-05-20T01:55:33.820Z,0.00
2019-05-20T01:56:33.823Z,0.00
2019-05-20T01:57:33.803Z,0.00
2019-05-20T01:58:33.803Z,0.00
2019-05-20T01:59:33.786Z,0.00
2019-05-20T02:00:33.784Z,0.00
2019-05-20T02:01:33.773Z,0.00
2019-05-20T02:02:33.770Z,0.00
2019-05-20T02:03:33.788Z,0.00
2019-05-20T02:04:33.775Z,0.00
2019-05-20T02:05:33.838Z,0.00
2019-05-20T02:06:33.737Z,0.00
2019-05-20T02:07:33.730Z,0.00
2019-05-20T02:08:33.721Z,0.00
2019-05-20T02:09:33.781Z,0.00
2019-05-20T02:10:33.707Z,0.00
2019-05-20T02:11:33.705Z,0.00
2019-05-20T02:12:33.689Z,0.00
2019-05-20T02:13:33.687Z,0.00
2019-05-20T02:14:33.672Z,0.00
2019-05-20T02:15:33.664Z,0.00
2019-05-20T02:16:33.774Z,0.00
2019-05-20T02:17:33.676Z,0.00
2019-05-20T02:18:33.664Z,0.00
2019-05-20T02:19:33.658Z,0.00
2019-05-20T02:20:33.645Z,0.00
2019-05-20T02:21:33.638Z,0.00
2019-05-20T02:22:33.634Z,0.00
2019-05-20T02:23:33.624Z,0.00
2019-05-20T02:24:33.627Z,0.00
2019-05-20T02:25:33.615Z,0.00
2019-05-20T02:26:33.603Z,0.00
2019-05-20T02:27:33.605Z,0.00
2019-05-20T02:28:33.615Z,0.00
2019-05-20T02:29:33.598Z,0.00
2019-05-20T02:30:33.598Z,0.00
2019-05-20T02:31:33.593Z,0.00
2019-05-20T02:32:33.618Z,0.00
2019-05-20T02:33:49.697Z,0.00
2019-05-20T02:34:34.560Z,0.00
2019-05-20T02:35:33.551Z,0.00
2019-05-20T02:36:33.548Z,0.00
2019-05-20T02:37:33.539Z,0.00
2019-05-20T02:38:33.541Z,0.00
2019-05-20T02:39:33.525Z,0.00
2019-05-20T02:40:33.521Z,0.00
2019-05-20T02:41:33.522Z,0.00
2019-05-20T02:42:33.502Z,0.00
2019-05-20T02:43:33.497Z,0.00
2019-05-20T02:44:34.346Z,0.00
2019-05-20T02:45:33.483Z,0.00
2019-05-20T02:46:33.478Z,0.00
2019-05-20T02:47:33.468Z,0.00
2019-05-20T02:48:33.459Z,0.00
2019-05-20T02:49:33.463Z,0.00
2019-05-20T02:50:33.594Z,0.00
2019-05-20T02:51:33.443Z,0.00
2019-05-20T02:52:33.461Z,0.00
2019-05-20T02:53:33.430Z,0.00
2019-05-20T02:54:33.434Z,0.00
2019-05-20T02:55:33.423Z,0.00
2019-05-20T02:56:33.415Z,0.00
2019-05-20T02:57:33.399Z,0.00
2019-05-20T02:58:33.403Z,0.00
2019-05-20T02:59:33.522Z,0.00
2019-05-20T03:00:33.383Z,0.00
2019-05-20T03:01:33.392Z,0.00
2019-05-20T03:02:33.436Z,0.00
2019-05-20T03:03:33.368Z,0.00
2019-05-20T03:04:33.356Z,0.00
2019-05-20T03:05:33.347Z,0.00
2019-05-20T03:06:33.366Z,0.00
2019-05-20T03:07:33.342Z,0.00
2019-05-20T03:08:33.322Z,0.00
2019-05-20T03:09:33.315Z,0.00
2019-05-20T03:10:33.387Z,0.00
2019-05-20T03:11:33.297Z,0.00
2019-05-20T03:12:33.298Z,0.00
2019-05-20T03:13:33.278Z,0.00
2019-05-20T03:14:33.270Z,0.00
2019-05-20T03:15:33.264Z,0.00
2019-05-20T03:16:33.279Z,0.00
2019-05-20T03:17:33.266Z,0.00
2019-05-20T03:18:33.376Z,0.00
2019-05-20T03:19:33.233Z,0.00
2019-05-20T03:20:33.224Z,0.00
2019-05-20T03:21:33.227Z,0.00
2019-05-20T03:22:33.213Z,0.00
2019-05-20T03:23:33.203Z,0.00
2019-05-20T03:24:33.220Z,0.00
2019-05-20T03:25:33.204Z,0.00
2019-05-20T03:26:33.279Z,0.00
2019-05-20T03:27:33.182Z,0.00
2019-05-20T03:28:33.179Z,0.00
2019-05-20T03:29:33.170Z,0.00
2019-05-20T03:30:33.163Z,0.00
2019-05-20T03:31:33.169Z,0.00
2019-05-20T03:32:33.151Z,0.00
2019-05-20T03:33:33.186Z,0.00
2019-05-20T03:34:50.782Z,0.00
2019-05-20T03:35:34.153Z,0.00
2019-05-20T03:36:33.138Z,0.00
2019-05-20T03:37:33.138Z,0.00
2019-05-20T03:38:33.248Z,0.00
2019-05-20T03:39:33.119Z,0.00
2019-05-20T03:40:33.125Z,0.00
2019-05-20T03:41:33.121Z,0.00
2019-05-20T03:42:33.138Z,0.00
2019-05-20T03:43:33.118Z,0.00
2019-05-20T03:44:33.125Z,0.00
2019-05-20T03:45:33.114Z,0.00
2019-05-20T03:46:33.110Z,0.00
2019-05-20T03:47:33.097Z,0.00
2019-05-20T03:48:33.101Z,0.00
2019-05-20T03:49:33.091Z,0.00
2019-05-20T03:50:33.084Z,0.00
2019-05-20T03:51:33.078Z,0.00
2019-05-20T03:52:33.072Z,0.00
2019-05-20T03:53:33.074Z,0.00
2019-05-20T03:54:33.059Z,0.00
2019-05-20T03:55:33.050Z,0.00
2019-05-20T03:56:33.074Z,0.00
2019-05-20T03:57:33.034Z,0.00
2019-05-20T03:58:33.026Z,0.00
2019-05-20T03:59:33.027Z,0.00
2019-05-20T04:00:33.007Z,0.00
2019-05-20T04:01:33.003Z,0.00
2019-05-20T04:02:32.993Z,0.00
2019-05-20T04:03:33.254Z,0.00
2019-05-20T04:04:33.061Z,0.00
2019-05-20T04:05:32.994Z,0.00
2019-05-20T04:06:32.969Z,0.00
2019-05-20T04:07:32.956Z,0.00
2019-05-20T04:08:32.949Z,0.00
2019-05-20T04:09:32.941Z,0.00
2019-05-20T04:10:32.963Z,0.00
2019-05-20T04:11:32.948Z,0.00
2019-05-20T04:12:32.925Z,0.00
2019-05-20T04:13:34.779Z,0.00
2019-05-20T04:14:32.933Z,0.00
2019-05-20T04:15:32.943Z,0.00
2019-05-20T04:16:32.920Z,0.00
2019-05-20T04:17:32.923Z,0.00
2019-05-20T04:18:32.898Z,0.00
2019-05-20T04:19:32.910Z,0.00
2019-05-20T04:20:32.885Z,0.00
2019-05-20T04:21:32.894Z,0.00
2019-05-20T04:22:32.905Z,0.00
2019-05-20T04:23:32.874Z,0.00
2019-05-20T04:24:32.868Z,0.00
2019-05-20T04:25:32.863Z,0.00
2019-05-20T04:26:32.861Z,0.00
2019-05-20T04:27:32.844Z,0.00
2019-05-20T04:28:32.866Z,0.00
2019-05-20T04:29:32.830Z,0.00
2019-05-20T04:30:32.822Z,0.00
2019-05-20T04:31:32.821Z,0.00
2019-05-20T04:32:32.815Z,0.00
2019-05-20T04:33:32.797Z,0.00
2019-05-20T04:34:32.784Z,0.00
2019-05-20T04:35:32.797Z,0.00
2019-05-20T04:36:32.795Z,0.00
2019-05-20T04:37:32.875Z,0.00
2019-05-20T04:38:32.782Z,0.00
2019-05-20T04:39:32.769Z,0.00
2019-05-20T04:40:32.761Z,0.00
2019-05-20T04:41:35.554Z,0.00
2019-05-20T04:42:32.758Z,0.00
2019-05-20T04:43:32.758Z,0.00
2019-05-20T04:44:32.733Z,0.00
2019-05-20T04:45:32.722Z,0.00
2019-05-20T04:46:32.718Z,0.00
2019-05-20T04:47:32.710Z,0.00
2019-05-20T04:48:32.764Z,0.00
2019-05-20T04:49:32.706Z,0.00
2019-05-20T04:50:32.687Z,0.00
2019-05-20T04:51:32.678Z,0.00
2019-05-20T04:52:32.666Z,0.00
2019-05-20T04:53:32.673Z,0.00
2019-05-20T04:54:32.669Z,5.62
2019-05-20T04:55:32.643Z,5.62
2019-05-20T04:56:32.635Z,5.62
2019-05-20T04:57:32.629Z,5.62
2019-05-20T04:58:32.620Z,5.62
2019-05-20T04:59:32.644Z,5.62
2019-05-20T05:00:32.623Z,5.62
2019-05-20T05:01:32.614Z,5.62
2019-05-20T05:02:32.608Z,5.62
2019-05-20T05:03:32.599Z,5.62
2019-05-20T05:04:32.598Z,5.62
2019-05-20T05:05:37.669Z,5.62
2019-05-20T05:06:33.577Z,5.62
2019-05-20T05:07:32.567Z,5.62
2019-05-20T05:08:32.577Z,5.62
2019-05-20T05:09:32.553Z,5.62
2019-05-20T05:10:32.655Z,5.62
2019-05-20T05:11:32.567Z,5.62
2019-05-20T05:12:32.557Z,5.62
2019-05-20T05:13:32.547Z,5.62
2019-05-20T05:14:32.569Z,5.62
2019-05-20T05:15:32.534Z,5.62
2019-05-20T05:16:32.529Z,5.62
2019-05-20T05:17:32.518Z,11.25
2019-05-20T05:18:32.541Z,11.25
2019-05-20T05:19:32.499Z,11.25
2019-05-20T05:20:32.501Z,11.25
2019-05-20T05:21:32.502Z,11.25
2019-05-20T05:22:32.474Z,11.25
2019-05-20T05:23:32.497Z,11.25
2019-05-20T05:24:32.483Z,11.25
2019-05-20T05:25:32.476Z,11.25
2019-05-20T05:26:32.468Z,11.25
2019-05-20T05:27:32.530Z,11.25
2019-05-20T05:28:32.453Z,11.25
2019-05-20T05:29:32.446Z,11.25
2019-05-20T05:30:32.457Z,11.25
2019-05-20T05:31:32.454Z,11.25
2019-05-20T05:32:32.463Z,11.25
2019-05-20T05:33:32.431Z,11.25
2019-05-20T05:34:32.424Z,11.25
2019-05-20T05:35:32.443Z,11.25
2019-05-20T05:36:32.419Z,11.25
2019-05-20T05:37:32.405Z,11.25
2019-05-20T05:38:32.399Z,11.25
2019-05-20T05:39:32.393Z,11.25
2019-05-20T05:40:32.381Z,11.25
2019-05-20T05:41:32.423Z,11.25
2019-05-20T05:42:32.365Z,11.25
2019-05-20T05:43:32.390Z,11.25
2019-05-20T05:44:32.350Z,11.25
2019-05-20T05:45:32.420Z,11.25
2019-05-20T05:46:32.327Z,11.25
2019-05-20T05:47:32.386Z,11.25
2019-05-20T05:48:32.345Z,11.25
2019-05-20T05:49:32.337Z,11.25
2019-05-20T05:50:32.327Z,11.25
2019-05-20T05:51:32.314Z,11.25
2019-05-20T05:52:32.323Z,11.25
2019-05-20T05:53:32.298Z,11.25
2019-05-20T05:54:32.308Z,11.25
2019-05-20T05:55:32.280Z,11.25
2019-05-20T05:56:32.282Z,11.25
2019-05-20T05:57:32.273Z,11.25
2019-05-20T05:58:32.289Z,16.88
2019-05-20T05:59:32.253Z,16.88
2019-05-20T06:00:32.273Z,16.88
2019-05-20T06:01:32.253Z,16.88
2019-05-20T06:02:32.246Z,16.88
2019-05-20T06:03:32.235Z,16.88
2019-05-20T06:04:32.254Z,16.88
2019-05-20T06:05:32.240Z,22.50
2019-05-20T06:06:32.216Z,22.50
2019-05-20T06:07:32.240Z,22.50
2019-05-20T06:08:32.212Z,22.50
2019-05-20T06:09:32.206Z,22.50
2019-05-20T06:10:35.555Z,22.50
2019-05-20T06:11:32.193Z,22.50
2019-05-20T06:12:32.182Z,22.50
2019-05-20T06:13:32.200Z,22.50
2019-05-20T06:14:32.165Z,22.50
2019-05-20T06:15:32.164Z,22.50
2019-05-20T06:16:36.494Z,22.50
2019-05-20T06:17:32.138Z,22.50
2019-05-20T06:18:32.157Z,28.12
2019-05-20T06:19:32.124Z,28.12
2019-05-20T06:20:32.122Z,28.12
2019-05-20T06:21:32.111Z,28.12
2019-05-20T06:22:32.106Z,28.12
2019-05-20T06:23:32.099Z,28.12
2019-05-20T06:24:32.129Z,33.75
2019-05-20T06:25:32.122Z,33.75
2019-05-20T06:26:32.122Z,39.38
2019-05-20T06:27:32.197Z,39.38
2019-05-20T06:28:32.103Z,39.38
2019-05-20T06:29:32.094Z,39.38
2019-05-20T06:30:32.094Z,39.38
2019-05-20T06:31:32.258Z,33.75
2019-05-20T06:32:32.085Z,28.12
2019-05-20T06:33:32.083Z,28.12
2019-05-20T06:34:32.134Z,28.12
2019-05-20T06:35:32.065Z,28.12
2019-05-20T06:36:32.044Z,28.12
2019-05-20T06:37:32.081Z,22.50
2019-05-20T06:38:32.031Z,22.50
2019-05-20T06:39:32.023Z,22.50
2019-05-20T06:40:32.031Z,22.50
2019-05-20T06:41:32.025Z,16.88
2019-05-20T06:42:32.019Z,22.50
2019-05-20T06:43:32.033Z,28.12
2019-05-20T06:44:32.034Z,22.50
2019-05-20T06:45:32.026Z,22.50
2019-05-20T06:46:32.015Z,28.12
2019-05-20T06:47:32.009Z,33.75
2019-05-20T06:48:31.999Z,33.75
2019-05-20T06:49:32.016Z,39.38
2019-05-20T06:50:31.978Z,45.00
2019-05-20T06:51:31.973Z,39.38
2019-05-20T06:52:35.763Z,45.00
2019-05-20T06:53:31.958Z,45.00
2019-05-20T06:54:32.028Z,39.38
2019-05-20T06:55:31.945Z,28.12
2019-05-20T06:56:31.995Z,28.12
2019-05-20T06:57:31.925Z,39.38
2019-05-20T06:58:31.922Z,22.50
2019-05-20T06:59:31.909Z,28.12
2019-05-20T07:00:31.921Z,28.12
2019-05-20T07:01:31.930Z,33.75
2019-05-20T07:02:31.899Z,39.38
2019-05-20T07:03:31.902Z,39.38
2019-05-20T07:04:31.893Z,39.38
2019-05-20T07:05:31.894Z,28.12
2019-05-20T07:06:46.143Z,45.00
2019-05-20T07:07:32.901Z,50.62
2019-05-20T07:08:32.032Z,50.62
2019-05-20T07:09:31.882Z,39.38
2019-05-20T07:10:31.849Z,28.12
2019-05-20T07:11:31.865Z,28.12
2019-05-20T07:12:40.551Z,28.12
2019-05-20T07:13:32.837Z,28.12
2019-05-20T07:14:31.823Z,28.12
2019-05-20T07:15:31.817Z,28.12
2019-05-20T07:16:31.812Z,33.75
2019-05-20T07:17:31.795Z,33.75
2019-05-20T07:18:31.779Z,50.62
2019-05-20T07:19:31.776Z,50.62
2019-05-20T07:20:31.769Z,28.12
2019-05-20T07:21:31.785Z,33.75
2019-05-20T07:22:31.760Z,45.00
2019-05-20T07:23:31.756Z,45.00
2019-05-20T07:24:31.739Z,22.50
2019-05-20T07:25:31.767Z,22.50
2019-05-20T07:26:31.735Z,16.88
2019-05-20T07:27:31.744Z,16.88
2019-05-20T07:28:31.710Z,22.50
2019-05-20T07:29:31.704Z,16.88
2019-05-20T07:30:31.689Z,16.88
2019-05-20T07:31:31.692Z,16.88
2019-05-20T07:32:31.698Z,16.88
2019-05-20T07:33:31.723Z,11.25
2019-05-20T07:34:31.694Z,11.25
2019-05-20T07:35:31.687Z,11.25
2019-05-20T07:36:31.688Z,16.88
2019-05-20T07:37:31.684Z,16.88
2019-05-20T07:38:31.667Z,16.88
2019-05-20T07:39:31.777Z,16.88
2019-05-20T07:40:31.655Z,16.88
2019-05-20T07:41:31.646Z,22.50
2019-05-20T07:42:31.640Z,16.88
2019-05-20T07:43:31.627Z,16.88
2019-05-20T07:44:31.642Z,22.50
2019-05-20T07:45:31.642Z,22.50
2019-05-20T07:46:31.619Z,33.75
2019-05-20T07:47:31.635Z,33.75
2019-05-20T07:48:32.727Z,33.75
2019-05-20T07:49:31.611Z,33.75
2019-05-20T07:50:31.683Z,39.38
2019-05-20T07:51:31.629Z,39.38
2019-05-20T07:52:31.581Z,50.62
2019-05-20T07:53:31.588Z,50.62
2019-05-20T07:54:31.604Z,45.00
2019-05-20T07:55:31.560Z,39.38
2019-05-20T07:56:31.581Z,28.12
2019-05-20T07:57:31.560Z,28.12
2019-05-20T07:58:33.614Z,33.75
2019-05-20T07:59:31.560Z,33.75
2019-05-20T08:00:31.623Z,39.38
2019-05-20T08:01:31.564Z,45.00
2019-05-20T08:02:31.531Z,33.75
2019-05-20T08:03:31.550Z,28.12
2019-05-20T08:04:31.567Z,33.75
2019-05-20T08:05:31.521Z,39.38
2019-05-20T08:06:31.540Z,39.38
2019-05-20T08:07:50.668Z,28.12
2019-05-20T08:08:32.492Z,28.12
2019-05-20T08:09:31.500Z,33.75
2019-05-20T08:10:31.482Z,45.00
2019-05-20T08:11:31.551Z,39.38
2019-05-20T08:12:31.479Z,45.00
2019-05-20T08:13:31.451Z,39.38
2019-05-20T08:14:31.449Z,39.38
2019-05-20T08:15:31.440Z,33.75
2019-05-20T08:16:31.428Z,33.75
2019-05-20T08:17:31.423Z,33.75
2019-05-20T08:18:31.419Z,28.12
2019-05-20T08:19:31.415Z,33.75
2019-05-20T08:20:31.412Z,28.12
2019-05-20T08:21:31.391Z,22.50
2019-05-20T08:22:31.394Z,22.50
2019-05-20T08:23:31.396Z,16.88
2019-05-20T08:24:31.396Z,16.88
2019-05-20T08:25:31.386Z,16.88
2019-05-20T08:26:31.380Z,11.25
2019-05-20T08:27:31.368Z,11.25
2019-05-20T08:28:31.385Z,11.25
2019-05-20T08:29:31.355Z,11.25
2019-05-20T08:30:31.361Z,11.25
2019-05-20T08:31:31.334Z,11.25
2019-05-20T08:32:31.361Z,11.25
2019-05-20T08:33:31.371Z,11.25
2019-05-20T08:34:31.568Z,11.25
2019-05-20T08:35:31.314Z,11.25
2019-05-20T08:36:31.349Z,11.25
2019-05-20T08:37:44.725Z,11.25
2019-05-20T08:38:32.327Z,11.25
2019-05-20T08:39:31.301Z,11.25
2019-05-20T08:40:31.347Z,11.25
2019-05-20T08:41:31.315Z,11.25
2019-05-20T08:42:31.286Z,11.25
2019-05-20T08:43:31.259Z,11.25
2019-05-20T08:44:31.269Z,11.25
2019-05-20T08:45:31.253Z,11.25
2019-05-20T08:46:31.237Z,11.25
2019-05-20T08:47:31.229Z,11.25
2019-05-20T08:48:31.323Z,16.88
2019-05-20T08:49:32.007Z,16.88
2019-05-20T08:50:31.601Z,16.88
2019-05-20T08:51:31.555Z,16.88
2019-05-20T08:52:31.194Z,16.88
2019-05-20T08:53:31.222Z,16.88
2019-05-20T08:54:31.171Z,16.88
2019-05-20T08:55:31.182Z,16.88
2019-05-20T08:56:31.159Z,16.88
2019-05-20T08:57:31.172Z,16.88
2019-05-20T08:58:31.152Z,16.88
2019-05-20T08:59:31.268Z,22.50
2019-05-20T09:00:31.146Z,16.88
2019-05-20T09:01:31.366Z,16.88
2019-05-20T09:02:31.108Z,11.25
2019-05-20T09:03:31.108Z,11.25
2019-05-20T09:04:31.105Z,11.25
2019-05-20T09:05:31.090Z,11.25
2019-05-20T09:06:31.106Z,16.88
2019-05-20T09:07:31.095Z,16.88
2019-05-20T09:08:31.084Z,28.12
2019-05-20T09:09:31.120Z,33.75
2019-05-20T09:10:31.074Z,16.88
2019-05-20T09:11:31.153Z,16.88
2019-05-20T09:12:31.077Z,16.88
2019-05-20T09:13:31.062Z,16.88
2019-05-20T09:14:31.047Z,16.88
2019-05-20T09:15:31.130Z,16.88
2019-05-20T09:16:31.030Z,16.88
2019-05-20T09:17:31.217Z,22.50
2019-05-20T09:18:31.020Z,22.50
2019-05-20T09:19:31.014Z,22.50
2019-05-20T09:20:31.003Z,33.75
2019-05-20T09:21:31.007Z,45.00
2019-05-20T09:22:31.007Z,33.75
2019-05-20T09:23:30.990Z,39.38
2019-05-20T09:24:31.038Z,39.38
2019-05-20T09:25:30.986Z,45.00
2019-05-20T09:26:30.995Z,33.75
2019-05-20T09:27:30.977Z,33.75
2019-05-20T09:28:30.998Z,28.12
2019-05-20T09:29:31.025Z,28.12
2019-05-20T09:30:30.954Z,28.12
2019-05-20T09:31:30.953Z,39.38
2019-05-20T09:32:30.972Z,45.00
2019-05-20T09:33:31.089Z,45.00
2019-05-20T09:34:30.918Z,45.00
2019-05-20T09:35:30.911Z,45.00
2019-05-20T09:36:30.906Z,45.00
2019-05-20T09:37:30.933Z,45.00
2019-05-20T09:38:30.917Z,45.00
2019-05-20T09:39:31.265Z,45.00
2019-05-20T09:40:30.898Z,39.38
2019-05-20T09:41:30.898Z,28.12
2019-05-20T09:42:30.890Z,45.00
2019-05-20T09:43:30.877Z,33.75
2019-05-20T09:44:30.959Z,45.00
2019-05-20T09:45:30.864Z,39.38
2019-05-20T09:46:30.855Z,33.75
2019-05-20T09:47:30.849Z,45.00
2019-05-20T09:48:30.853Z,33.75
2019-05-20T09:49:30.927Z,28.12
2019-05-20T09:50:30.832Z,28.12
2019-05-20T09:51:30.823Z,33.75
2019-05-20T09:52:30.822Z,33.75
2019-05-20T09:53:30.809Z,33.75
2019-05-20T09:54:30.790Z,39.38
2019-05-20T09:55:30.812Z,22.50
2019-05-20T09:56:30.778Z,28.12
2019-05-20T09:57:30.773Z,22.50
2019-05-20T09:58:30.772Z,22.50
2019-05-20T09:59:42.851Z,16.88
2019-05-20T10:00:31.778Z,16.88
2019-05-20T10:01:30.758Z,16.88
2019-05-20T10:02:37.436Z,16.88
2019-05-20T10:03:31.729Z,16.88
2019-05-20T10:04:30.736Z,16.88
2019-05-20T10:05:30.704Z,16.88
2019-05-20T10:06:30.704Z,16.88
2019-05-20T10:07:30.765Z,16.88
2019-05-20T10:08:39.028Z,16.88
2019-05-20T10:09:31.676Z,22.50
2019-05-20T10:10:30.680Z,22.50
2019-05-20T10:11:30.686Z,22.50
2019-05-20T10:12:45.468Z,22.50
2019-05-20T10:13:31.653Z,22.50
2019-05-20T10:14:30.746Z,22.50
2019-05-20T10:15:30.644Z,22.50
2019-05-20T10:16:30.635Z,22.50
2019-05-20T10:17:30.632Z,22.50
2019-05-20T10:18:37.156Z,22.50
2019-05-20T10:19:31.611Z,16.88
2019-05-20T10:20:30.602Z,22.50
2019-05-20T10:21:30.613Z,22.50
2019-05-20T10:22:30.614Z,22.50
2019-05-20T10:23:30.600Z,16.88
2019-05-20T10:24:30.605Z,16.88
2019-05-20T10:25:30.588Z,11.25
2019-05-20T10:26:30.596Z,11.25
2019-05-20T10:27:30.571Z,11.25
2019-05-20T10:28:30.566Z,11.25
2019-05-20T10:29:30.554Z,11.25
2019-05-20T10:30:30.552Z,11.25
2019-05-20T10:31:30.556Z,11.25
2019-05-20T10:32:30.533Z,11.25
2019-05-20T10:33:30.541Z,5.62
2019-05-20T10:34:30.518Z,5.62
2019-05-20T10:35:30.522Z,5.62
2019-05-20T10:36:30.501Z,5.62
2019-05-20T10:37:30.497Z,5.62
2019-05-20T10:38:30.496Z,5.62
2019-05-20T10:39:30.484Z,5.62
2019-05-20T10:40:30.498Z,11.25
2019-05-20T10:41:30.484Z,11.25
2019-05-20T10:42:30.482Z,11.25
2019-05-20T10:43:30.465Z,11.25
2019-05-20T10:44:30.486Z,11.25
2019-05-20T10:45:30.449Z,11.25
2019-05-20T10:46:30.492Z,11.25
2019-05-20T10:47:30.441Z,11.25
2019-05-20T10:48:30.427Z,11.25
2019-05-20T10:49:30.428Z,11.25
2019-05-20T10:50:30.412Z,11.25
2019-05-20T10:51:30.400Z,11.25
2019-05-20T10:52:30.419Z,11.25
2019-05-20T10:53:30.408Z,11.25
2019-05-20T10:54:30.406Z,11.25
2019-05-20T10:55:30.416Z,11.25
2019-05-20T10:56:30.387Z,11.25
2019-05-20T10:57:30.380Z,11.25
2019-05-20T10:58:30.397Z,11.25
2019-05-20T10:59:30.367Z,11.25
2019-05-20T11:00:30.400Z,11.25
2019-05-20T11:01:30.381Z,11.25
2019-05-20T11:02:31.221Z,11.25
2019-05-20T11:03:30.342Z,5.62
2019-05-20T11:04:30.330Z,5.62
2019-05-20T11:05:30.329Z,5.62
2019-05-20T11:06:30.322Z,11.25
2019-05-20T11:07:30.317Z,11.25
2019-05-20T11:08:30.298Z,11.25
2019-05-20T11:09:30.291Z,11.25
2019-05-20T11:10:30.294Z,5.62
2019-05-20T11:11:30.299Z,5.62
2019-05-20T11:12:30.349Z,5.62
2019-05-20T11:13:30.279Z,5.62
2019-05-20T11:14:30.262Z,5.62
2019-05-20T11:15:30.308Z,5.62
2019-05-20T11:16:30.248Z,5.62
2019-05-20T11:17:30.269Z,5.62
2019-05-20T11:18:30.249Z,5.62
2019-05-20T11:19:30.242Z,5.62
2019-05-20T11:20:30.244Z,5.62
2019-05-20T11:21:30.225Z,5.62
2019-05-20T11:22:30.319Z,5.62
2019-05-20T11:23:30.290Z,5.62
2019-05-20T11:24:30.215Z,5.62
2019-05-20T11:25:30.211Z,5.62
2019-05-20T11:26:30.204Z,5.62
2019-05-20T11:27:30.191Z,5.62
2019-05-20T11:28:30.195Z,5.62
2019-05-20T11:29:30.173Z,5.62
2019-05-20T11:30:30.188Z,5.62
2019-05-20T11:31:30.184Z,5.62
2019-05-20T11:32:30.178Z,5.62
2019-05-20T11:33:30.192Z,5.62
2019-05-20T11:34:30.178Z,5.62
2019-05-20T11:35:30.145Z,5.62
2019-05-20T11:36:30.138Z,5.62
2019-05-20T11:37:30.154Z,5.62
2019-05-20T11:38:30.142Z,5.62
2019-05-20T11:39:33.741Z,5.62
2019-05-20T11:40:30.136Z,5.62
2019-05-20T11:41:52.326Z,5.62
2019-05-20T11:42:31.121Z,5.62
2019-05-20T11:43:30.128Z,5.62
2019-05-20T11:44:30.144Z,5.62
2019-05-20T11:45:30.120Z,5.62
2019-05-20T11:46:30.122Z,5.62
2019-05-20T11:47:30.134Z,5.62
2019-05-20T11:48:30.121Z,5.62
2019-05-20T11:49:30.103Z,5.62
2019-05-20T11:50:30.100Z,5.62
2019-05-20T11:51:30.095Z,5.62
2019-05-20T11:52:30.088Z,5.62
2019-05-20T11:53:30.074Z,5.62
2019-05-20T11:54:30.129Z,5.62
2019-05-20T11:55:30.140Z,5.62
2019-05-20T11:56:30.038Z,5.62
2019-05-20T11:57:30.089Z,5.62
2019-05-20T11:58:30.025Z,5.62
2019-05-20T11:59:30.022Z,5.62
2019-05-20T12:00:30.011Z,5.62
2019-05-20T12:01:30.013Z,5.62
2019-05-20T12:02:29.999Z,5.62
2019-05-20T12:03:29.995Z,5.62
2019-05-20T12:04:29.984Z,5.62
2019-05-20T12:05:29.975Z,5.62
2019-05-20T12:06:29.973Z,5.62
2019-05-20T12:07:29.990Z,5.62
2019-05-20T12:08:29.953Z,5.62
2019-05-20T12:09:29.948Z,5.62
2019-05-20T12:10:29.943Z,5.62
2019-05-20T12:11:29.928Z,5.62
2019-05-20T12:12:29.924Z,5.62
2019-05-20T12:13:29.927Z,5.62
2019-05-20T12:14:29.900Z,5.62
2019-05-20T12:15:29.896Z,5.62
2019-05-20T12:16:29.893Z,5.62
2019-05-20T12:17:29.884Z,5.62
2019-05-20T12:18:29.871Z,5.62
2019-05-20T12:19:29.885Z,5.62
2019-05-20T12:20:30.175Z,5.62
2019-05-20T12:21:29.851Z,5.62
2019-05-20T12:22:29.843Z,5.62
2019-05-20T12:23:29.838Z,5.62
2019-05-20T12:24:29.834Z,5.62
2019-05-20T12:25:29.847Z,5.62
2019-05-20T12:26:29.815Z,5.62
2019-05-20T12:27:29.841Z,5.62
2019-05-20T12:28:29.894Z,5.62
2019-05-20T12:29:29.798Z,5.62
2019-05-20T12:30:29.800Z,5.62
2019-05-20T12:31:29.779Z,5.62
2019-05-20T12:32:29.772Z,5.62
2019-05-20T12:33:29.782Z,5.62
2019-05-20T12:34:29.764Z,5.62
2019-05-20T12:35:29.756Z,5.62
2019-05-20T12:36:29.741Z,5.62
2019-05-20T12:37:29.737Z,5.62
2019-05-20T12:38:29.725Z,5.62
2019-05-20T12:39:29.835Z,5.62
2019-05-20T12:40:29.709Z,5.62
2019-05-20T12:41:29.767Z,5.62
2019-05-20T12:42:29.693Z,5.62
2019-05-20T12:43:29.689Z,5.62
2019-05-20T12:44:29.678Z,5.62
2019-05-20T12:45:29.722Z,5.62
2019-05-20T12:46:29.669Z,5.62
2019-05-20T12:47:29.661Z,5.62
2019-05-20T12:48:29.653Z,5.62
2019-05-20T12:49:29.719Z,5.62
2019-05-20T12:50:29.744Z,5.62
2019-05-20T12:51:29.627Z,5.62
2019-05-20T12:52:29.621Z,5.62
2019-05-20T12:53:29.623Z,5.62
2019-05-20T12:54:29.606Z,5.62
2019-05-20T12:55:29.606Z,5.62
2019-05-20T12:56:29.605Z,5.62
2019-05-20T12:57:29.617Z,5.62
2019-05-20T12:58:29.584Z,5.62
2019-05-20T12:59:29.582Z,5.62
2019-05-20T13:00:29.585Z,5.62
2019-05-20T13:01:29.582Z,5.62
2019-05-20T13:02:29.555Z,5.62
2019-05-20T13:03:29.545Z,5.62
2019-05-20T13:04:29.542Z,5.62
2019-05-20T13:05:29.533Z,5.62
2019-05-20T13:06:29.529Z,5.62
2019-05-20T13:07:29.512Z,5.62